createdAt,value
2017-11-28T00:00:56.430Z,5.50
2017-11-28T00:03:24.007Z,5.50
2017-11-28T00:05:52.322Z,5.50
2017-11-28T00:08:19.899Z,5.50
2017-11-28T00:10:47.430Z,5.60
2017-11-28T00:13:15.008Z,5.50
2017-11-28T00:15:42.538Z,5.50
2017-11-28T00:18:10.115Z,5.50
2017-11-28T00:20:37.656Z,5.50
2017-11-28T00:23:05.243Z,5.50
2017-11-28T00:25:32.777Z,5.50
2017-11-28T00:28:00.359Z,5.50
2017-11-28T00:30:27.899Z,5.50
2017-11-28T00:32:55.493Z,5.50
2017-11-28T00:35:23.025Z,5.50
2017-11-28T00:37:50.610Z,5.50
2017-11-28T00:40:18.272Z,5.50
2017-11-28T00:42:45.829Z,5.50
2017-11-28T00:45:13.401Z,5.50
2017-11-28T00:47:40.936Z,5.50
2017-11-28T00:50:08.509Z,5.40
2017-11-28T00:52:36.050Z,5.40
2017-11-28T00:55:03.618Z,5.40
2017-11-28T00:57:31.154Z,5.40
2017-11-28T00:59:59.490Z,5.50
2017-11-28T01:02:27.025Z,5.40
2017-11-28T01:04:54.599Z,5.40
2017-11-28T01:07:22.135Z,5.40
2017-11-28T01:09:49.701Z,5.40
2017-11-28T01:12:17.291Z,5.40
2017-11-28T01:14:44.877Z,5.40
2017-11-28T01:17:13.192Z,5.40
2017-11-28T01:19:40.769Z,5.40
2017-11-28T01:22:08.303Z,5.40
2017-11-28T01:24:35.874Z,5.40
2017-11-28T01:27:03.405Z,5.40
2017-11-28T01:29:31.742Z,5.40
2017-11-28T01:31:59.283Z,5.40
2017-11-28T01:34:26.854Z,5.40
2017-11-28T01:36:54.393Z,5.40
2017-11-28T01:39:21.970Z,5.40
2017-11-28T01:41:49.510Z,5.40
2017-11-28T01:44:17.088Z,5.40
2017-11-28T01:46:44.622Z,5.40
2017-11-28T01:49:12.192Z,5.40
2017-11-28T01:51:39.733Z,5.40
2017-11-28T01:54:07.309Z,5.40
2017-11-28T01:56:34.860Z,5.40
2017-11-28T01:59:02.434Z,5.40
2017-11-28T02:01:29.974Z,5.30
2017-11-28T02:03:57.655Z,5.30
2017-11-28T02:06:25.195Z,5.30
2017-11-28T02:08:52.762Z,5.30
2017-11-28T02:11:20.296Z,5.30
2017-11-28T02:13:48.637Z,5.30
2017-11-28T02:16:16.172Z,5.30
2017-11-28T02:18:43.744Z,5.30
2017-11-28T02:21:11.318Z,5.30
2017-11-28T02:23:38.890Z,5.30
2017-11-28T02:26:06.433Z,5.30
2017-11-28T02:28:34.016Z,5.30
2017-11-28T02:31:01.551Z,5.30
2017-11-28T02:33:29.125Z,5.30
2017-11-28T02:35:56.667Z,5.30
2017-11-28T02:38:24.322Z,5.30
2017-11-28T02:41:03.810Z,5.30
2017-11-28T02:43:32.152Z,5.30
2017-11-28T02:45:59.827Z,5.30
2017-11-28T02:48:27.409Z,5.30
2017-11-28T02:50:58.456Z,5.30
2017-11-28T02:53:26.814Z,5.30
2017-11-28T02:55:54.350Z,5.20
2017-11-28T02:58:24.872Z,5.30
2017-11-28T03:03:56.160Z,5.30
2017-11-28T03:06:24.465Z,5.30
2017-11-28T03:08:52.807Z,5.20
2017-11-28T03:11:20.343Z,5.20
2017-11-28T03:13:48.839Z,5.30
2017-11-28T03:16:21.178Z,5.30
2017-11-28T03:18:50.374Z,5.20
2017-11-28T03:21:17.915Z,5.20
2017-11-28T03:23:50.004Z,5.20
2017-11-28T03:26:18.307Z,5.20
2017-11-28T03:28:59.427Z,5.20
2017-11-28T03:31:27.738Z,5.20
2017-11-28T03:33:59.219Z,5.20
2017-11-28T03:36:26.754Z,5.20
2017-11-28T03:38:54.423Z,5.20
2017-11-28T03:41:21.961Z,5.20
2017-11-28T03:43:49.537Z,5.20
2017-11-28T03:46:17.080Z,5.20
2017-11-28T03:48:45.476Z,5.20
2017-11-28T03:51:13.022Z,5.20
2017-11-28T03:53:40.597Z,5.20
2017-11-28T03:56:08.135Z,5.20
2017-11-28T03:58:35.705Z,5.20
2017-11-28T04:01:03.275Z,5.20
2017-11-28T04:03:30.851Z,5.20
2017-11-28T04:05:58.390Z,5.20
2017-11-28T04:08:25.956Z,5.20
2017-11-28T04:10:53.493Z,5.20
2017-11-28T04:13:21.076Z,5.20
2017-11-28T04:15:48.621Z,5.20
2017-11-28T04:18:16.200Z,5.20
2017-11-28T04:20:43.751Z,5.20
2017-11-28T04:23:11.322Z,5.20
2017-11-28T04:25:38.857Z,5.10
2017-11-28T04:28:06.435Z,5.10
2017-11-28T04:30:33.968Z,5.20
2017-11-28T04:33:01.541Z,5.10
2017-11-28T04:35:29.083Z,5.10
2017-11-28T04:37:56.786Z,5.10
2017-11-28T04:40:24.324Z,5.10
2017-11-28T04:42:51.902Z,5.20
2017-11-28T04:45:19.438Z,5.10
2017-11-28T04:47:47.023Z,5.10
2017-11-28T04:50:14.566Z,5.10
2017-11-28T04:52:42.150Z,5.10
2017-11-28T04:55:09.694Z,5.10
2017-11-28T04:57:37.273Z,5.10
2017-11-28T05:00:04.814Z,5.10
2017-11-28T05:02:32.399Z,5.10
2017-11-28T05:04:59.946Z,5.10
2017-11-28T05:07:27.530Z,5.10
2017-11-28T05:09:55.064Z,5.10
2017-11-28T05:12:22.646Z,5.00
2017-11-28T05:14:50.182Z,5.00
2017-11-28T05:17:17.757Z,5.00
2017-11-28T05:19:45.309Z,5.00
2017-11-28T05:22:12.882Z,5.00
2017-11-28T05:24:40.419Z,5.00
2017-11-28T05:27:07.993Z,5.00
2017-11-28T05:29:35.534Z,5.00
2017-11-28T05:32:03.117Z,5.00
2017-11-28T05:34:30.655Z,5.00
2017-11-28T05:36:58.231Z,5.00
2017-11-28T05:39:26.537Z,4.90
2017-11-28T05:41:54.881Z,4.90
2017-11-28T05:44:22.419Z,4.90
2017-11-28T05:46:49.995Z,4.90
2017-11-28T05:49:17.547Z,4.90
2017-11-28T05:51:45.123Z,4.90
2017-11-28T05:54:12.658Z,4.90
2017-11-28T05:56:40.238Z,4.90
2017-11-28T05:59:07.777Z,4.90
2017-11-28T06:01:35.354Z,4.90
2017-11-28T06:04:02.885Z,4.90
2017-11-28T06:06:30.464Z,4.90
2017-11-28T06:08:58.016Z,4.80
2017-11-28T06:11:25.753Z,4.80
2017-11-28T06:13:53.295Z,4.80
2017-11-28T06:16:21.638Z,4.80
2017-11-28T06:18:49.172Z,4.80
2017-11-28T06:21:16.842Z,4.80
2017-11-28T06:23:44.382Z,4.80
2017-11-28T06:26:11.959Z,4.80
2017-11-28T06:28:39.488Z,4.80
2017-11-28T06:31:07.064Z,4.80
2017-11-28T06:33:34.611Z,4.70
2017-11-28T06:36:02.180Z,4.70
2017-11-28T06:38:29.725Z,4.70
2017-11-28T06:40:57.305Z,4.70
2017-11-28T06:43:24.844Z,4.70
2017-11-28T06:45:52.431Z,4.70
2017-11-28T06:48:19.968Z,4.70
2017-11-28T06:50:47.546Z,4.70
2017-11-28T06:53:15.089Z,4.60
2017-11-28T06:55:42.664Z,4.70
2017-11-28T06:58:10.197Z,4.60
2017-11-28T07:00:38.537Z,4.60
2017-11-28T07:03:06.257Z,4.60
2017-11-28T07:05:33.897Z,4.60
2017-11-28T07:08:02.198Z,4.60
2017-11-28T07:10:29.777Z,4.60
2017-11-28T07:12:57.350Z,4.60
2017-11-28T07:15:24.998Z,4.60
2017-11-28T07:17:52.534Z,4.60
2017-11-28T07:20:20.105Z,4.60
2017-11-28T07:22:47.644Z,4.70
2017-11-28T07:25:15.983Z,4.60
2017-11-28T07:27:43.521Z,4.60
2017-11-28T07:30:11.091Z,4.60
2017-11-28T07:32:38.738Z,4.70
2017-11-28T07:35:06.346Z,4.70
2017-11-28T07:37:34.641Z,4.70
2017-11-28T07:40:02.983Z,4.70
2017-11-28T07:42:30.541Z,4.70
2017-11-28T07:44:58.151Z,4.80
2017-11-28T07:47:25.695Z,4.80
2017-11-28T07:49:54.122Z,4.80
2017-11-28T07:52:21.662Z,4.80
2017-11-28T07:54:49.274Z,4.80
2017-11-28T07:57:17.632Z,4.80
2017-11-28T07:59:45.223Z,4.80
2017-11-28T08:02:13.697Z,4.90
2017-11-28T08:04:42.042Z,4.90
2017-11-28T08:07:09.605Z,4.80
2017-11-28T08:09:37.185Z,4.90
2017-11-28T08:12:04.730Z,4.90
2017-11-28T08:14:32.321Z,4.90
2017-11-28T08:17:00.748Z,4.90
2017-11-28T08:19:28.379Z,4.90
2017-11-28T08:21:55.918Z,5.00
2017-11-28T08:24:24.267Z,4.90
2017-11-28T08:26:51.807Z,4.90
2017-11-28T08:29:19.387Z,4.90
2017-11-28T08:31:46.944Z,4.90
2017-11-28T08:34:14.517Z,4.90
2017-11-28T08:36:42.097Z,4.90
2017-11-28T08:39:10.403Z,4.90
2017-11-28T08:41:37.977Z,4.90
2017-11-28T08:44:05.510Z,4.90
2017-11-28T08:46:33.218Z,4.90
2017-11-28T08:49:02.298Z,4.90
2017-11-28T08:51:29.873Z,4.90
2017-11-28T08:53:57.452Z,4.90
2017-11-28T08:56:25.024Z,5.00
2017-11-28T08:58:52.597Z,5.00
2017-11-28T09:01:20.905Z,5.00
2017-11-28T09:03:48.490Z,5.00
2017-11-28T09:06:16.034Z,5.00
2017-11-28T09:08:43.698Z,5.00
2017-11-28T09:11:11.236Z,5.00
2017-11-28T09:13:38.819Z,5.10
2017-11-28T09:16:06.353Z,5.10
2017-11-28T09:18:33.938Z,5.20
2017-11-28T09:21:01.477Z,5.20
2017-11-28T09:23:29.057Z,5.20
2017-11-28T09:25:56.593Z,5.20
2017-11-28T09:28:24.171Z,5.30
2017-11-28T09:30:51.709Z,5.30
2017-11-28T09:33:19.353Z,5.30
2017-11-28T09:35:47.945Z,5.40
2017-11-28T09:38:15.515Z,5.40
2017-11-28T09:40:43.100Z,5.40
2017-11-28T09:43:10.681Z,5.40
2017-11-28T09:45:38.258Z,5.40
2017-11-28T09:48:05.793Z,5.30
2017-11-28T09:50:33.365Z,5.40
2017-11-28T09:53:00.920Z,5.40
2017-11-28T09:55:28.508Z,5.40
2017-11-28T09:57:56.845Z,5.50
2017-11-28T10:00:24.418Z,5.50
2017-11-28T10:02:51.957Z,5.60
2017-11-28T10:05:19.540Z,5.60
2017-11-28T10:07:47.113Z,5.70
2017-11-28T10:10:14.701Z,5.80
2017-11-28T10:12:43.005Z,5.90
2017-11-28T10:15:10.677Z,5.90
2017-11-28T10:17:38.217Z,5.90
2017-11-28T10:20:05.798Z,5.90
2017-11-28T10:22:33.353Z,5.90
2017-11-28T10:25:00.929Z,5.80
2017-11-28T10:27:28.470Z,5.70
2017-11-28T10:29:56.050Z,5.70
2017-11-28T10:32:23.591Z,5.60
2017-11-28T10:34:51.163Z,5.60
2017-11-28T10:37:18.702Z,5.60
2017-11-28T10:39:46.276Z,5.50
2017-11-28T10:42:13.819Z,5.60
2017-11-28T10:44:41.404Z,5.60
2017-11-28T10:47:08.938Z,5.60
2017-11-28T10:49:36.512Z,5.60
2017-11-28T10:52:04.176Z,5.60
2017-11-28T10:54:31.758Z,5.70
2017-11-28T10:56:59.298Z,5.70
2017-11-28T10:59:26.877Z,5.70
2017-11-28T11:01:54.414Z,5.70
2017-11-28T11:04:22.000Z,5.70
2017-11-28T11:06:49.539Z,5.70
2017-11-28T11:09:17.195Z,5.70
2017-11-28T11:11:44.775Z,5.70
2017-11-28T11:14:12.320Z,5.70
2017-11-28T11:16:39.896Z,5.70
2017-11-28T11:19:07.438Z,5.70
2017-11-28T11:21:35.023Z,5.70
2017-11-28T11:24:02.558Z,5.70
2017-11-28T11:26:30.140Z,5.70
2017-11-28T11:28:57.673Z,5.70
2017-11-28T11:31:25.258Z,5.70
2017-11-28T11:33:52.830Z,5.70
2017-11-28T11:36:20.406Z,5.70
2017-11-28T11:38:48.813Z,5.70
2017-11-28T11:41:16.405Z,5.70
2017-11-28T11:43:43.947Z,5.70
2017-11-28T11:46:11.537Z,5.70
2017-11-28T11:48:39.084Z,5.70
2017-11-28T11:51:06.630Z,5.70
2017-11-28T11:53:34.222Z,5.80
2017-11-28T11:56:01.769Z,5.80
2017-11-28T11:58:29.341Z,5.80
2017-11-28T12:00:56.886Z,5.80
2017-11-28T12:03:24.470Z,5.80
2017-11-28T12:05:52.014Z,5.80
2017-11-28T12:08:19.608Z,5.80
2017-11-28T12:10:47.915Z,5.80
2017-11-28T12:13:15.486Z,5.80
2017-11-28T12:15:43.066Z,5.80
2017-11-28T12:18:10.614Z,5.80
2017-11-28T12:20:38.965Z,5.80
2017-11-28T12:23:06.586Z,5.80
2017-11-28T12:25:34.164Z,5.80
2017-11-28T12:28:02.473Z,5.80
2017-11-28T12:30:30.058Z,5.80
2017-11-28T12:32:57.603Z,5.80
2017-11-28T12:35:25.149Z,5.80
2017-11-28T12:37:52.726Z,5.80
2017-11-28T12:40:20.260Z,5.80
2017-11-28T12:42:47.845Z,5.80
2017-11-28T12:45:15.438Z,5.80
2017-11-28T12:47:42.980Z,5.80
2017-11-28T12:50:10.536Z,5.80
2017-11-28T12:52:38.301Z,5.80
2017-11-28T12:55:05.846Z,5.90
2017-11-28T12:57:33.510Z,5.90
2017-11-28T13:00:01.052Z,5.90
2017-11-28T13:02:28.648Z,5.80
2017-11-28T13:04:56.185Z,5.80
2017-11-28T13:07:23.849Z,5.90
2017-11-28T13:09:51.432Z,5.90
2017-11-28T13:12:18.969Z,5.90
2017-11-28T13:14:46.554Z,5.80
2017-11-28T13:17:14.093Z,5.90
2017-11-28T13:19:41.683Z,5.90
2017-11-28T13:22:10.746Z,5.90
2017-11-28T13:24:38.317Z,5.90
2017-11-28T13:27:05.862Z,5.90
2017-11-28T13:29:33.446Z,5.90
2017-11-28T13:32:00.995Z,5.90
2017-11-28T13:34:28.583Z,5.90
2017-11-28T13:36:56.122Z,5.90
2017-11-28T13:39:23.719Z,5.90
2017-11-28T13:41:52.035Z,5.90
2017-11-28T13:44:19.616Z,5.80
2017-11-28T13:46:47.162Z,5.90
2017-11-28T13:49:14.772Z,5.90
2017-11-28T13:51:43.086Z,5.80
2017-11-28T13:54:10.621Z,5.80
2017-11-28T13:56:38.203Z,5.80
2017-11-28T13:59:05.741Z,5.80
2017-11-28T14:01:33.320Z,5.80
2017-11-28T14:04:00.868Z,5.80
2017-11-28T14:06:28.458Z,5.80
2017-11-28T14:08:56.015Z,5.80
2017-11-28T14:11:23.598Z,5.80
2017-11-28T14:13:51.154Z,5.80
2017-11-28T14:16:18.745Z,5.80
2017-11-28T14:18:47.062Z,5.80
2017-11-28T14:21:16.546Z,5.80
2017-11-28T14:23:49.664Z,5.80
2017-11-28T14:26:22.862Z,5.80
2017-11-28T14:28:51.158Z,5.80
2017-11-28T14:31:24.302Z,5.80
2017-11-28T14:33:52.315Z,5.80
2017-11-28T14:36:34.774Z,5.80
2017-11-28T14:39:02.319Z,5.80
2017-11-28T14:41:30.725Z,5.70
2017-11-28T14:43:58.274Z,5.80
2017-11-28T14:46:25.858Z,5.80
2017-11-28T14:48:53.406Z,5.80
2017-11-28T14:51:26.633Z,5.80
2017-11-28T14:53:59.681Z,5.80
2017-11-28T14:56:37.936Z,5.70
2017-11-28T14:59:11.075Z,5.70
2017-11-28T15:01:41.286Z,5.80
2017-11-28T15:04:30.353Z,5.70
2017-11-28T15:07:05.210Z,5.70
2017-11-28T15:09:40.413Z,5.70
2017-11-28T15:12:14.322Z,5.70
2017-11-28T15:14:57.547Z,5.70
2017-11-28T15:17:31.395Z,5.70
2017-11-28T15:20:15.628Z,5.70
2017-11-28T15:22:44.018Z,5.70
2017-11-28T15:25:21.517Z,5.70
2017-11-28T15:27:49.066Z,5.70
2017-11-28T15:30:16.656Z,5.70
2017-11-28T15:32:44.210Z,5.70
2017-11-28T15:35:11.785Z,5.70
2017-11-28T15:37:39.330Z,5.70
2017-11-28T15:40:06.921Z,5.70
2017-11-28T15:42:34.466Z,5.70
2017-11-28T15:45:02.058Z,5.60
2017-11-28T15:47:30.370Z,5.60
2017-11-28T15:49:57.949Z,5.60
2017-11-28T15:52:25.494Z,5.60
2017-11-28T15:54:53.071Z,5.60
2017-11-28T15:57:20.610Z,5.70
2017-11-28T15:59:48.188Z,5.70
2017-11-28T16:02:15.735Z,5.60
2017-11-28T16:04:43.312Z,5.60
2017-11-28T16:07:10.854Z,5.60
2017-11-28T16:09:38.437Z,5.60
2017-11-28T16:12:06.086Z,5.60
2017-11-28T16:14:33.664Z,5.60
2017-11-28T16:17:01.212Z,5.60
2017-11-28T16:19:28.789Z,5.60
2017-11-28T16:21:56.339Z,5.60
2017-11-28T16:24:23.917Z,5.60
2017-11-28T16:26:51.464Z,5.60
2017-11-28T16:29:19.040Z,5.60
2017-11-28T16:31:46.577Z,5.50
2017-11-28T16:34:14.157Z,5.60
2017-11-28T16:36:41.702Z,5.50
2017-11-28T16:39:09.292Z,5.50
2017-11-28T16:41:37.606Z,5.50
2017-11-28T16:44:05.196Z,5.50
2017-11-28T16:46:32.735Z,5.50
2017-11-28T16:49:00.314Z,5.50
2017-11-28T16:51:27.850Z,5.50
2017-11-28T16:53:55.435Z,5.50
2017-11-28T16:56:22.974Z,5.50
2017-11-28T16:58:50.555Z,5.50
2017-11-28T17:01:18.094Z,5.50
2017-11-28T17:03:45.674Z,5.50
2017-11-28T17:06:13.214Z,5.50
2017-11-28T17:08:40.784Z,5.40
2017-11-28T17:11:08.326Z,5.50
2017-11-28T17:13:35.912Z,5.40
2017-11-28T17:16:03.456Z,5.50
2017-11-28T17:18:31.052Z,5.40
2017-11-28T17:20:58.590Z,5.40
2017-11-28T17:23:26.166Z,5.40
2017-11-28T17:25:53.709Z,5.40
2017-11-28T17:28:21.293Z,5.40
2017-11-28T17:30:48.829Z,5.40
2017-11-28T17:33:16.401Z,5.40
2017-11-28T17:35:43.943Z,5.40
2017-11-28T17:38:11.526Z,5.40
2017-11-28T17:40:39.070Z,5.40
2017-11-28T17:43:06.641Z,5.40
2017-11-28T17:45:34.185Z,5.40
2017-11-28T17:48:01.763Z,5.40
2017-11-28T17:50:29.324Z,5.40
2017-11-28T17:52:56.908Z,5.40
2017-11-28T17:55:25.213Z,5.40
2017-11-28T17:57:52.799Z,5.40
2017-11-28T18:00:20.332Z,5.40
2017-11-28T18:02:47.910Z,5.40
2017-11-28T18:05:15.447Z,5.30
2017-11-28T18:07:43.021Z,5.30
2017-11-28T18:10:10.565Z,5.30
2017-11-28T18:12:38.159Z,5.30
2017-11-28T18:15:05.694Z,5.30
2017-11-28T18:17:33.270Z,5.30
2017-11-28T18:20:00.816Z,5.30
2017-11-28T18:22:28.411Z,5.30
2017-11-28T18:24:55.947Z,5.30
2017-11-28T18:27:23.492Z,5.30
2017-11-28T18:29:51.185Z,5.30
2017-11-28T18:32:18.739Z,5.30
2017-11-28T18:34:46.310Z,5.30
2017-11-28T18:37:13.852Z,5.30
2017-11-28T18:39:41.472Z,5.30
2017-11-28T18:42:09.019Z,5.30
2017-11-28T18:44:37.364Z,5.30
2017-11-28T18:47:04.903Z,5.30
2017-11-28T18:49:32.480Z,5.30
2017-11-28T18:52:00.043Z,5.30
2017-11-28T18:54:27.623Z,5.30
2017-11-28T18:56:55.167Z,5.30
2017-11-28T18:59:22.750Z,5.30
2017-11-28T19:01:50.290Z,5.30
2017-11-28T19:04:17.870Z,5.30
2017-11-28T19:06:45.486Z,5.30
2017-11-28T19:09:13.079Z,5.30
2017-11-28T19:11:42.757Z,5.30
2017-11-28T19:14:10.348Z,5.30
2017-11-28T19:16:37.880Z,5.20
2017-11-28T19:19:05.465Z,5.20
2017-11-28T19:21:32.999Z,5.20
2017-11-28T19:24:00.584Z,5.20
2017-11-28T19:26:28.124Z,5.10
2017-11-28T19:28:55.710Z,5.20
2017-11-28T19:31:23.248Z,5.10
2017-11-28T19:33:50.824Z,5.10
2017-11-28T19:36:18.364Z,5.10
2017-11-28T19:38:45.945Z,5.10
2017-11-28T19:41:13.486Z,5.10
2017-11-28T19:43:41.063Z,5.10
2017-11-28T19:46:08.603Z,5.10
2017-11-28T19:48:36.178Z,5.10
2017-11-28T19:51:03.816Z,5.10
2017-11-28T19:53:31.477Z,5.10
2017-11-28T19:55:59.139Z,5.10
2017-11-28T19:58:26.678Z,5.10
2017-11-28T20:00:54.253Z,5.10
2017-11-28T20:03:21.802Z,5.10
2017-11-28T20:05:49.381Z,5.10
2017-11-28T20:08:16.922Z,5.10
2017-11-28T20:10:44.506Z,5.10
2017-11-28T20:13:12.052Z,5.10
2017-11-28T20:15:39.655Z,5.10
2017-11-28T20:18:07.194Z,5.10
2017-11-28T20:20:34.779Z,5.10
2017-11-28T20:23:03.103Z,5.10
2017-11-28T20:25:30.693Z,5.10
2017-11-28T20:27:58.229Z,5.10
2017-11-28T20:30:25.802Z,5.10
2017-11-28T20:32:53.338Z,5.10
2017-11-28T20:35:20.915Z,5.10
2017-11-28T20:37:48.454Z,5.10
2017-11-28T20:40:16.034Z,5.10
2017-11-28T20:42:43.587Z,5.00
2017-11-28T20:45:11.176Z,5.00
2017-11-28T20:47:38.722Z,5.00
2017-11-28T20:50:06.293Z,5.10
2017-11-28T20:52:33.831Z,5.00
2017-11-28T20:55:01.418Z,5.00
2017-11-28T20:57:28.951Z,5.00
2017-11-28T20:59:56.526Z,5.00
2017-11-28T21:02:24.060Z,5.00
2017-11-28T21:04:51.633Z,5.00
2017-11-28T21:07:19.172Z,5.00
2017-11-28T21:09:46.758Z,5.00
2017-11-28T21:12:14.290Z,5.00
2017-11-28T21:14:41.859Z,5.00
2017-11-28T21:17:09.390Z,5.00
2017-11-28T21:19:37.733Z,5.00
2017-11-28T21:22:05.268Z,5.00
2017-11-28T21:24:32.843Z,5.00
2017-11-28T21:27:00.379Z,5.00
2017-11-28T21:29:27.983Z,5.00
2017-11-28T21:31:55.517Z,5.00
2017-11-28T21:34:23.090Z,5.00
2017-11-28T21:36:50.624Z,5.00
2017-11-28T21:39:18.203Z,5.00
2017-11-28T21:41:45.739Z,5.00
2017-11-28T21:44:13.318Z,5.00
2017-11-28T21:46:40.849Z,5.00
2017-11-28T21:49:08.435Z,4.90
2017-11-28T21:51:35.964Z,4.90
2017-11-28T21:54:03.542Z,5.00
2017-11-28T21:56:31.079Z,5.00
2017-11-28T21:58:58.667Z,5.00
2017-11-28T22:01:26.197Z,5.00
2017-11-28T22:03:53.783Z,4.90
2017-11-28T22:06:21.321Z,5.00
2017-11-28T22:08:49.001Z,4.90
2017-11-28T22:11:16.545Z,5.00
2017-11-28T22:13:44.118Z,4.90
2017-11-28T22:16:11.656Z,4.90
2017-11-28T22:18:40.003Z,4.90
2017-11-28T22:21:07.550Z,4.90
2017-11-28T22:23:35.134Z,4.90
2017-11-28T22:26:03.446Z,4.90
2017-11-28T22:28:31.013Z,4.90
2017-11-28T22:30:58.545Z,4.90
2017-11-28T22:33:26.132Z,4.90
2017-11-28T22:35:53.704Z,4.90
2017-11-28T22:38:21.242Z,4.90
2017-11-28T22:40:48.818Z,4.90
2017-11-28T22:43:16.364Z,4.90
2017-11-28T22:45:43.943Z,4.90
2017-11-28T22:48:11.474Z,4.90
2017-11-28T22:50:39.053Z,4.90
2017-11-28T22:53:06.590Z,4.90
2017-11-28T22:55:34.166Z,4.90
2017-11-28T22:58:01.705Z,4.90
2017-11-28T23:00:29.289Z,4.90
2017-11-28T23:02:56.865Z,4.90
2017-11-28T23:05:24.394Z,4.90
2017-11-28T23:07:51.969Z,4.90
2017-11-28T23:10:19.509Z,4.90
2017-11-28T23:12:47.088Z,4.90
2017-11-28T23:15:14.639Z,4.90
2017-11-28T23:17:42.222Z,4.90
2017-11-28T23:20:09.877Z,4.90
2017-11-28T23:22:37.453Z,4.90
2017-11-28T23:25:04.987Z,4.90
2017-11-28T23:27:32.567Z,4.90
2017-11-28T23:30:00.104Z,4.90
2017-11-28T23:32:27.677Z,4.80
2017-11-28T23:34:55.209Z,4.80
2017-11-28T23:37:22.783Z,4.80
2017-11-28T23:39:50.318Z,4.90
2017-11-28T23:42:17.906Z,4.80
2017-11-28T23:44:45.451Z,4.80
2017-11-28T23:47:13.033Z,4.80
2017-11-28T23:49:40.579Z,4.80
2017-11-28T23:52:08.154Z,4.80
2017-11-28T23:54:35.685Z,4.80
2017-11-28T23:57:03.269Z,4.80
2017-11-28T23:59:30.811Z,4.80
